Time;durP1;ratioP1;P1;durP2;ratioP2;P2;SDS_P1;SDS_P2;PMS_P1;PMS_P2;Temp;Humidity;BMP_temperature;BMP_pressure;BME280_temperature;BME280_humidity;BME280_pressure;Samples;Min_cycle;Max_cycle;Signal;HPM_P1;HPM_P2
2022/01/12 00:01:02;;;;;;;9.07;4.28;;;;;;;8.75;45.24;103358.50;4954089;29;20055;-65
2022/01/12 00:03:28;;;;;;;9.63;5.57;;;;;;;8.72;45.42;103350.59;4953779;29;20034;-66
2022/01/12 00:05:53;;;;;;;8.90;5.10;;;;;;;8.73;44.67;103349.66;4953840;29;20024;-66
2022/01/12 00:08:19;;;;;;;7.88;4.15;;;;;;;8.73;44.87;103347.00;4936671;29;20033;-66
2022/01/12 00:10:44;;;;;;;10.63;4.82;;;;;;;8.72;45.53;103344.34;4953686;29;20024;-66
2022/01/12 00:13:09;;;;;;;14.30;5.20;;;;;;;8.71;44.93;103337.25;4953607;29;20027;-66
2022/01/12 00:15:35;;;;;;;7.32;3.97;;;;;;;8.70;44.66;103340.88;4953837;29;20083;-65
2022/01/12 00:18:00;;;;;;;7.10;4.13;;;;;;;8.69;44.85;103339.13;4936782;29;20514;-66
2022/01/12 00:20:26;;;;;;;6.88;3.95;;;;;;;8.68;45.47;103340.91;4936787;29;20058;-66
2022/01/12 00:22:52;;;;;;;13.32;4.57;;;;;;;8.68;44.99;103335.56;4953473;29;20114;-65
2022/01/12 00:33:16;;;;;;;8.43;4.07;;;;;;;8.68;45.04;103381.00;4951814;28;20034;-65
2022/01/12 00:35:46;;;;;;;12.40;4.32;;;;;;;8.72;45.03;103379.97;4957175;29;20032;-66
2022/01/12 00:38:13;;;;;;;7.25;4.03;;;;;;;8.74;44.86;103380.78;4939678;29;20392;-65
2022/01/12 00:40:40;;;;;;;9.98;4.03;;;;;;;8.77;45.55;103380.66;4957080;29;20055;-66
2022/01/12 00:43:05;;;;;;;8.70;3.97;;;;;;;8.79;45.96;103378.81;4957158;29;20023;-67
2022/01/12 00:45:37;;;;;;;8.27;4.40;;;;;;;8.82;45.27;103371.63;4958061;28;20550;-66
2022/01/12 00:48:03;;;;;;;6.80;3.92;;;;;;;8.83;44.82;103378.69;4958010;29;20089;-66
2022/01/12 00:50:28;;;;;;;6.95;3.90;;;;;;;8.83;45.92;103373.34;4925018;29;20039;-66
2022/01/12 00:52:54;;;;;;;6.40;3.88;;;;;;;8.83;45.23;103373.34;4957886;29;20027;-66
2022/01/12 00:55:19;;;;;;;12.02;4.07;;;;;;;8.82;45.03;103374.31;4957830;29;20052;-65
2022/01/12 00:57:45;;;;;;;7.90;4.82;;;;;;;8.84;44.91;103376.00;4958125;29;20507;-66
2022/01/12 01:00:11;;;;;;;10.23;4.75;;;;;;;8.87;45.51;103391.03;4957810;29;20027;-67
2022/01/12 01:02:37;;;;;;;8.55;3.88;;;;;;;8.89;45.38;103400.75;4957796;29;20027;-66
2022/01/12 01:05:03;;;;;;;11.27;4.97;;;;;;;8.93;46.03;103412.22;4957834;29;20027;-66
2022/01/12 01:07:28;;;;;;;14.88;5.43;;;;;;;8.97;45.86;103411.16;4957695;29;20027;-66
2022/01/12 01:10:04;;;;;;;18.50;5.55;;;;;;;9.04;45.35;103426.06;4957772;29;20034;-66
2022/01/12 01:12:30;;;;;;;9.27;5.18;;;;;;;9.11;45.78;103432.91;4957575;29;20034;-66
2022/01/12 01:15:07;;;;;;;11.68;5.45;;;;;;;9.17;45.36;103435.38;4957554;29;20027;-66
2022/01/12 01:25:36;;;;;;;8.50;5.22;;;;;;;9.34;45.25;103427.59;4957489;29;20101;-66
2022/01/12 01:28:03;;;;;;;20.98;5.93;;;;;;;9.39;46.10;103428.28;4957657;29;20027;-67
2022/01/12 01:30:30;;;;;;;8.10;5.18;;;;;;;9.44;45.08;103431.66;4957665;29;20051;-67
2022/01/12 01:32:58;;;;;;;16.77;5.45;;;;;;;9.50;45.80;103442.13;4940141;29;20035;-67
2022/01/12 01:35:27;;;;;;;12.32;5.55;;;;;;;9.55;45.95;103437.47;4939818;29;20062;-66
2022/01/12 01:37:52;;;;;;;16.20;5.85;;;;;;;9.61;45.15;103431.91;4957622;29;20539;-66
2022/01/12 01:40:17;;;;;;;15.68;6.00;;;;;;;9.66;45.77;103437.09;4957278;29;20030;-66
2022/01/12 01:43:11;;;;;;;12.35;5.63;;;;;;;9.71;45.82;103441.34;4957217;29;20027;-66
2022/01/12 01:53:48;;;;;;;12.70;6.57;;;;;;;9.86;45.28;103451.41;4956806;28;20193;-66
2022/01/12 01:56:14;;;;;;;11.75;5.90;;;;;;;9.90;45.89;103452.19;4956656;29;20540;-66
2022/01/12 01:58:39;;;;;;;13.82;5.72;;;;;;;9.95;45.62;103467.13;4956793;29;20036;-66
2022/01/12 02:01:05;;;;;;;17.05;7.30;;;;;;;9.98;45.52;103459.91;4956883;29;20110;-66
2022/01/12 02:03:31;;;;;;;21.23;6.15;;;;;;;10.02;46.02;103456.19;4956798;29;20035;-66
2022/01/12 02:05:59;;;;;;;12.40;5.95;;;;;;;10.04;45.74;103454.31;4956584;29;20020;-66
2022/01/12 02:08:25;;;;;;;13.93;5.97;;;;;;;10.06;45.73;103441.72;4956810;29;20090;-67
2022/01/12 02:10:54;;;;;;;13.30;5.97;;;;;;;10.06;45.68;103431.88;4939437;29;20019;-66
2022/01/12 02:13:20;;;;;;;17.35;6.47;;;;;;;10.05;45.73;103419.41;4956621;29;20023;-66
2022/01/12 02:15:46;;;;;;;16.95;5.70;;;;;;;10.04;45.80;103411.47;4956548;29;20031;-66
2022/01/12 02:37:17;;;;;;;15.10;5.40;;;;;;;10.01;45.55;103454.44;4956284;29;20134;-66
2022/01/12 02:39:56;;;;;;;13.10;5.55;;;;;;;10.02;45.81;103443.66;4956111;29;20523;-66
2022/01/12 02:42:24;;;;;;;15.18;5.38;;;;;;;10.03;45.74;103439.16;4956239;29;20543;-66
2022/01/12 02:55:46;;;;;;;14.13;5.60;;;;;;;10.00;45.51;103409.81;4955071;28;20058;-67
2022/01/12 02:58:12;;;;;;;11.32;5.35;;;;;;;9.98;45.61;103414.38;4956054;29;20468;-66
2022/01/12 03:01:27;;;;;;;19.23;6.07;;;;;;;10.00;45.68;103409.81;4938675;29;20366;-65
2022/01/12 03:03:33;;;;;;;11.40;5.13;;;;;;;9.99;45.76;103403.63;4939311;29;20500;-66
2022/01/12 03:06:02;;;;;;;10.40;5.18;;;;;;;9.98;45.94;103385.81;4955647;29;20023;-65
2022/01/12 03:08:28;;;;;;;9.23;5.35;;;;;;;9.94;45.45;103395.75;4955561;29;20031;-66
2022/01/12 03:10:54;;;;;;;8.05;3.85;;;;;;;9.97;45.37;103415.34;4955944;29;20055;-65
2022/01/12 03:13:21;;;;;;;10.18;4.70;;;;;;;9.99;45.46;103409.00;4955567;29;20111;-67
2022/01/12 03:15:48;;;;;;;13.80;4.70;;;;;;;10.00;45.73;103402.69;4955478;29;20027;-66
2022/01/12 03:18:14;;;;;;;10.10;4.25;;;;;;;10.04;45.56;103406.09;4955489;29;20476;-66
2022/01/12 03:20:40;;;;;;;14.65;4.55;;;;;;;10.06;45.74;103410.47;4955636;29;20096;-66
2022/01/12 03:23:05;;;;;;;11.48;4.38;;;;;;;10.11;45.32;103418.31;4938341;29;20115;-66
2022/01/12 03:25:30;;;;;;;11.35;4.47;;;;;;;10.15;45.20;103422.66;4955383;29;20520;-66
2022/01/12 03:28:00;;;;;;;14.23;4.25;;;;;;;10.19;45.97;103432.31;4955461;29;20032;-66
2022/01/12 03:30:25;;;;;;;11.57;4.22;;;;;;;10.21;45.30;103436.66;4955534;29;20400;-67
2022/01/12 03:33:05;;;;;;;9.45;4.60;;;;;;;10.25;45.34;103445.44;4955380;29;20066;-67
2022/01/12 03:36:01;;;;;;;13.02;4.38;;;;;;;10.28;45.55;103456.91;4955186;29;20034;-66
2022/01/12 03:38:26;;;;;;;13.68;4.90;;;;;;;10.28;45.41;103464.06;4955457;29;20432;-66
2022/01/12 03:40:52;;;;;;;13.02;4.25;;;;;;;10.27;45.49;103467.69;4955216;29;20030;-66
2022/01/12 03:43:18;;;;;;;10.82;4.70;;;;;;;10.29;45.39;103471.16;4955327;29;20362;-67
2022/01/12 03:45:46;;;;;;;11.38;4.20;;;;;;;10.31;45.62;103480.00;4955295;28;20380;-66
2022/01/12 03:48:11;;;;;;;8.25;4.55;;;;;;;10.33;45.17;103478.16;4955392;29;20035;-66
2022/01/12 03:50:37;;;;;;;13.40;5.32;;;;;;;10.34;45.35;103479.88;4955208;29;20031;-67
2022/01/12 03:53:02;;;;;;;8.43;5.05;;;;;;;10.36;45.80;103473.53;4955057;29;20027;-67
2022/01/12 03:55:28;;;;;;;8.63;4.95;;;;;;;10.37;45.60;103469.03;4954837;29;20594;-66
2022/01/12 03:57:53;;;;;;;16.25;5.75;;;;;;;10.36;45.06;103456.56;4938062;29;20544;-66
2022/01/12 04:00:18;;;;;;;13.15;5.75;;;;;;;10.36;45.00;103451.22;4955081;29;20031;-67
2022/01/12 04:02:44;;;;;;;8.82;4.50;;;;;;;10.33;45.46;103443.34;4937830;29;20035;-66
2022/01/12 04:05:29;;;;;;;10.48;5.43;;;;;;;10.29;45.42;103436.34;4954920;29;20496;-66
2022/01/12 04:10:39;;;;;;;8.98;5.20;;;;;;;10.28;45.61;103442.63;4958809;29;20043;-66
2022/01/12 04:13:05;;;;;;;15.32;5.18;;;;;;;10.30;45.49;103448.81;4942036;29;20035;-67
2022/01/12 04:15:30;;;;;;;10.20;4.60;;;;;;;10.34;45.70;103447.72;4941791;29;20042;-66
2022/01/12 04:17:55;;;;;;;13.57;5.65;;;;;;;10.37;45.43;103447.63;4958690;29;20031;-66
2022/01/12 04:20:21;;;;;;;9.98;4.85;;;;;;;10.40;45.32;103447.50;4958666;29;20482;-66
2022/01/12 04:25:31;;;;;;;12.90;5.35;;;;;;;10.43;45.34;103442.00;4958499;29;20030;-66
2022/01/12 04:27:56;;;;;;;10.75;5.13;;;;;;;10.46;45.49;103458.84;4941164;29;20117;-66
2022/01/12 04:30:21;;;;;;;10.88;5.40;;;;;;;10.46;45.45;103457.94;4925386;29;20031;-67
2022/01/12 04:32:47;;;;;;;8.07;4.35;;;;;;;10.49;45.28;103471.22;4941367;29;20109;-66
2022/01/12 04:35:14;;;;;;;10.27;5.40;;;;;;;10.51;45.14;103469.34;4958270;29;20038;-66
2022/01/12 04:37:40;;;;;;;13.10;5.22;;;;;;;10.52;45.55;103473.78;4940981;29;20026;-66
2022/01/12 04:40:06;;;;;;;13.35;4.90;;;;;;;10.53;45.28;103471.03;4958231;29;20031;-65
2022/01/12 04:42:34;;;;;;;12.93;5.30;;;;;;;10.55;45.44;103472.78;4958447;29;20042;-66
2022/01/12 04:45:04;;;;;;;15.55;5.60;;;;;;;10.57;45.30;103485.19;4941447;28;20477;-67
2022/01/12 04:47:57;;;;;;;13.02;5.22;;;;;;;10.59;45.47;103496.69;4958339;28;20552;-66
2022/01/12 04:50:15;;;;;;;10.48;5.03;;;;;;;10.59;45.91;103502.06;4957792;29;20553;-66
2022/01/12 04:52:41;;;;;;;11.55;5.30;;;;;;;10.58;45.28;103502.97;4957988;29;20027;-66
2022/01/12 04:55:08;;;;;;;11.73;5.18;;;;;;;10.60;45.23;103503.81;4957742;29;20067;-67
2022/01/12 04:57:33;;;;;;;13.25;5.40;;;;;;;10.60;45.47;103503.81;4957903;29;20043;-66
2022/01/12 05:00:12;;;;;;;12.23;6.10;;;;;;;10.61;45.25;103499.34;4940762;29;20047;-67
2022/01/12 05:08:17;;;;;;;18.08;5.38;;;;;;;10.54;45.23;103477.25;4957778;29;20038;-66
2022/01/12 05:13:27;;;;;;;14.18;5.30;;;;;;;10.49;45.58;103481.94;4957743;29;20171;-67
2022/01/12 05:15:53;;;;;;;15.65;5.82;;;;;;;10.45;45.34;103489.22;4957559;29;20106;-66
2022/01/12 05:18:18;;;;;;;14.50;5.45;;;;;;;10.44;45.36;103494.66;4957239;28;20038;-66
2022/01/12 05:20:44;;;;;;;14.45;6.00;;;;;;;10.42;45.79;103496.50;4956645;29;20058;-66
2022/01/12 05:23:10;;;;;;;13.07;5.40;;;;;;;10.41;46.06;103486.75;4957343;29;20090;-66
2022/01/12 05:25:35;;;;;;;16.63;4.65;;;;;;;10.43;45.30;103490.22;4957482;29;20035;-66
2022/01/12 05:28:01;;;;;;;11.27;5.28;;;;;;;10.43;45.69;103485.75;4957553;29;20039;-67
2022/01/12 05:30:26;;;;;;;9.18;4.40;;;;;;;10.45;45.63;103493.72;4957498;29;20035;-66
2022/01/12 05:32:51;;;;;;;10.98;5.22;;;;;;;10.46;46.10;103484.75;4957269;29;20059;-66
2022/01/12 05:35:17;;;;;;;8.50;5.05;;;;;;;10.46;45.32;103480.28;4957250;29;20034;-66
2022/01/12 05:37:44;;;;;;;10.07;4.20;;;;;;;10.47;45.83;103487.34;4940013;29;20038;-67
2022/01/12 05:40:11;;;;;;;8.07;4.40;;;;;;;10.48;45.59;103482.88;4924122;29;20065;-66
2022/01/12 05:42:36;;;;;;;11.85;4.57;;;;;;;10.47;45.77;103479.31;4957051;29;20031;-66
2022/01/12 05:45:03;;;;;;;9.60;5.80;;;;;;;10.47;45.53;103486.47;4957368;29;20035;-66
2022/01/12 05:50:08;;;;;;;13.00;4.55;;;;;;;10.45;45.64;103483.00;4957079;29;20027;-66
2022/01/12 05:52:33;;;;;;;8.70;4.43;;;;;;;10.45;45.74;103483.00;4956903;29;20110;-66
2022/01/12 05:55:02;;;;;;;15.25;4.80;;;;;;;10.45;45.47;103483.00;4956755;29;20516;-66
2022/01/12 05:57:29;;;;;;;16.77;4.57;;;;;;;10.45;45.74;103483.00;4956790;29;20023;-65
2022/01/12 05:59:55;;;;;;;12.32;3.95;;;;;;;10.45;45.61;103481.19;4956748;29;20542;-65
2022/01/12 06:02:20;;;;;;;7.07;4.00;;;;;;;10.46;45.67;103490.09;4956794;29;20035;-65
2022/01/12 06:04:45;;;;;;;9.27;4.05;;;;;;;10.48;45.75;103482.88;4939520;29;20549;-65
2022/01/12 06:07:11;;;;;;;12.27;4.55;;;;;;;10.51;45.86;103490.78;4956665;29;20027;-65
2022/01/12 06:09:36;;;;;;;10.13;4.18;;;;;;;10.55;45.90;103488.84;4956584;29;20090;-65
2022/01/12 06:12:02;;;;;;;8.07;4.15;;;;;;;10.58;45.49;103497.63;4956463;29;20481;-65
2022/01/12 06:14:27;;;;;;;10.00;4.30;;;;;;;10.63;45.80;103502.81;4956464;29;20134;-65
2022/01/12 06:16:53;;;;;;;6.90;3.58;;;;;;;10.65;45.55;103496.44;4956519;29;20027;-65
2022/01/12 06:19:18;;;;;;;7.40;3.55;;;;;;;10.68;45.79;103493.63;4956454;29;20601;-64
2022/01/12 06:21:44;;;;;;;9.52;4.30;;;;;;;10.73;45.66;103504.16;4956244;29;20093;-65
2022/01/12 06:24:09;;;;;;;11.73;4.35;;;;;;;10.77;45.88;103501.31;4956414;29;20472;-65
2022/01/12 06:26:36;;;;;;;9.70;3.63;;;;;;;10.78;45.40;103503.03;4956387;29;20473;-65
2022/01/12 06:31:38;;;;;;;12.38;4.72;;;;;;;10.84;45.68;103508.13;4956420;28;20027;-65
2022/01/12 06:34:03;;;;;;;8.32;4.68;;;;;;;10.85;45.92;103504.53;4938822;29;20042;-64
2022/01/12 06:36:29;;;;;;;11.80;4.05;;;;;;;10.87;45.49;103502.66;4956048;29;20031;-65
2022/01/12 06:38:55;;;;;;;10.02;4.32;;;;;;;10.87;46.04;103508.00;4956101;29;20106;-65
2022/01/12 06:41:21;;;;;;;7.68;3.67;;;;;;;10.90;45.39;103512.38;4956059;29;20170;-65
2022/01/12 06:43:46;;;;;;;9.80;3.63;;;;;;;10.91;45.66;103511.44;4938897;29;20067;-65
2022/01/12 06:46:14;;;;;;;11.23;4.35;;;;;;;10.92;45.57;103524.75;4956139;28;20035;-65
2022/01/12 06:48:39;;;;;;;8.05;4.40;;;;;;;10.94;45.38;103522.88;4955868;29;20042;-65
2022/01/12 06:51:05;;;;;;;8.60;4.63;;;;;;;10.95;45.68;103516.59;4938821;29;20035;-65
2022/01/12 06:53:32;;;;;;;10.38;3.65;;;;;;;10.97;45.65;103522.75;4955813;29;20543;-66
2022/01/12 06:55:58;;;;;;;7.53;3.55;;;;;;;10.96;46.03;103507.63;4955467;29;20051;-65
2022/01/12 06:58:24;;;;;;;12.60;4.00;;;;;;;10.95;45.56;103505.88;4938691;29;20043;-65
2022/01/12 07:00:49;;;;;;;8.52;4.35;;;;;;;10.88;46.14;103507.06;4938386;29;20039;-65
2022/01/12 07:03:15;;;;;;;6.88;3.63;;;;;;;10.83;45.02;103517.09;4938439;29;20062;-65
2022/01/12 07:05:40;;;;;;;11.20;4.75;;;;;;;10.81;45.51;103527.03;4955481;29;20035;-65
2022/01/12 07:08:06;;;;;;;9.73;4.43;;;;;;;10.80;45.09;103537.84;4955565;29;20110;-66
2022/01/12 07:10:31;;;;;;;7.60;3.92;;;;;;;10.81;45.41;103548.47;4955606;29;20051;-64
2022/01/12 07:12:56;;;;;;;12.93;4.20;;;;;;;10.83;45.69;103545.75;4955515;29;20107;-65
2022/01/12 07:15:22;;;;;;;7.63;4.43;;;;;;;10.85;45.70;103557.28;4955423;29;20523;-65
2022/01/12 07:17:48;;;;;;;9.48;4.60;;;;;;;10.87;45.54;103572.34;4955291;29;20109;-65
2022/01/12 07:20:14;;;;;;;11.05;4.00;;;;;;;10.87;46.05;103572.34;4955693;29;20090;-65
2022/01/12 07:22:40;;;;;;;9.50;3.83;;;;;;;10.91;45.48;103582.03;4955383;29;20035;-65
2022/01/12 07:25:06;;;;;;;11.82;4.32;;;;;;;10.94;45.51;103584.56;4955152;29;20035;-65
2022/01/12 07:27:32;;;;;;;11.88;4.85;;;;;;;10.96;45.83;103598.81;4955278;29;20028;-65
2022/01/12 07:29:58;;;;;;;14.32;4.97;;;;;;;10.98;45.49;103607.66;4955257;29;20035;-65
2022/01/12 07:32:23;;;;;;;12.65;4.85;;;;;;;10.99;45.67;103608.53;4938012;29;20031;-66
2022/01/12 07:34:50;;;;;;;15.68;4.40;;;;;;;11.00;45.81;103613.81;4955263;29;20082;-65
2022/01/12 07:37:16;;;;;;;12.18;4.30;;;;;;;11.01;45.74;103623.63;4955034;29;20031;-66
2022/01/12 07:39:41;;;;;;;12.70;4.55;;;;;;;11.02;46.07;103625.38;4955134;29;20035;-65
2022/01/12 07:42:06;;;;;;;11.73;4.82;;;;;;;11.05;45.47;103627.91;4957104;28;20042;-65
2022/01/12 07:44:32;;;;;;;7.38;4.10;;;;;;;11.05;45.32;103624.38;4961777;28;20029;-65
2022/01/12 07:46:57;;;;;;;10.20;4.05;;;;;;;11.06;45.80;103626.97;4961829;28;20372;-65
2022/01/12 07:49:23;;;;;;;11.80;5.20;;;;;;;11.03;45.10;103620.84;4961477;28;20043;-65
2022/01/12 07:51:48;;;;;;;14.43;5.10;;;;;;;11.06;45.67;103626.97;4944301;29;20413;-65
2022/01/12 07:54:13;;;;;;;8.88;4.43;;;;;;;11.07;45.49;103622.50;4961256;28;20077;-65
2022/01/12 07:56:39;;;;;;;9.90;4.18;;;;;;;11.05;45.77;103625.22;4961574;29;20094;-65
2022/01/12 07:59:04;;;;;;;7.57;4.32;;;;;;;11.05;45.39;103630.56;4961370;28;20035;-65
2022/01/12 08:01:30;;;;;;;8.10;3.75;;;;;;;11.05;45.48;103632.41;4961312;28;20069;-65
2022/01/12 08:03:55;;;;;;;9.23;4.15;;;;;;;11.06;46.00;103634.13;4961398;29;20119;-66
2022/01/12 08:06:20;;;;;;;12.40;4.72;;;;;;;11.06;45.41;103632.34;4961320;28;20027;-65
2022/01/12 08:08:46;;;;;;;9.07;4.05;;;;;;;11.07;45.53;103633.22;4961123;29;20082;-65
2022/01/12 08:11:12;;;;;;;8.65;4.60;;;;;;;11.05;45.69;103624.38;4961241;29;20031;-65
2022/01/12 08:13:39;;;;;;;12.35;4.32;;;;;;;11.03;45.67;103624.41;4961285;29;20113;-66
2022/01/12 08:16:04;;;;;;;10.18;4.20;;;;;;;11.02;45.61;103620.00;4961154;29;20035;-65
2022/01/12 08:18:30;;;;;;;13.38;5.32;;;;;;;11.00;45.72;103627.22;4962551;28;20091;-67
2022/01/12 08:20:55;;;;;;;10.10;4.68;;;;;;;10.98;45.76;103625.53;4961097;28;20081;-65
2022/01/12 08:23:21;;;;;;;13.02;5.38;;;;;;;10.96;45.69;103636.34;4961358;28;20094;-65
2022/01/12 08:25:46;;;;;;;9.52;5.00;;;;;;;10.95;45.73;103644.44;4960913;28;20038;-65
2022/01/12 08:28:11;;;;;;;14.23;4.68;;;;;;;10.96;45.40;103651.56;4943344;29;20113;-65
2022/01/12 08:30:37;;;;;;;44.67;15.80;;;;;;;11.00;45.85;103656.72;4960970;28;20035;-65
2022/01/12 08:33:04;;;;;;;72.07;25.33;;;;;;;11.03;46.03;103661.97;4961045;28;20400;-65
2022/01/12 08:35:29;;;;;;;39.28;12.65;;;;;;;11.07;46.56;103666.28;4960943;28;20480;-66
2022/01/12 08:37:57;;;;;;;76.03;24.88;;;;;;;11.13;45.83;103658.91;4961257;29;20027;-65
2022/01/12 08:40:22;;;;;;;80.68;25.90;;;;;;;11.16;46.14;103667.72;4960718;28;20031;-65
2022/01/12 08:42:48;;;;;;;101.57;32.72;;;;;;;11.19;46.10;103674.75;4960617;29;20540;-66
2022/01/12 08:45:14;;;;;;;40.45;15.63;;;;;;;11.23;46.27;103671.00;4960635;28;20046;-67
2022/01/12 08:47:40;;;;;;;20.13;9.13;;;;;;;11.27;46.15;103672.63;4961030;29;20107;-65
2022/01/12 08:50:07;;;;;;;16.90;8.25;;;;;;;11.31;45.64;103679.59;4960892;29;20098;-66
2022/01/12 08:52:33;;;;;;;16.15;6.38;;;;;;;11.34;45.93;103682.16;4943665;29;20031;-66
2022/01/12 08:55:00;;;;;;;11.55;5.82;;;;;;;11.35;45.76;103681.22;4956861;28;20054;-66
2022/01/12 08:57:29;;;;;;;15.05;6.65;;;;;;;11.38;46.40;103687.34;4940828;29;20042;-66
2022/01/12 08:59:56;;;;;;;12.60;5.78;;;;;;;11.41;46.03;103691.72;4941372;29;20476;-66
2022/01/12 09:02:21;;;;;;;13.38;5.82;;;;;;;11.42;45.97;103701.50;4957820;29;20035;-65
2022/01/12 09:04:46;;;;;;;15.18;5.72;;;;;;;11.44;46.16;103707.69;4957740;29;20539;-65
2022/01/12 09:07:12;;;;;;;13.20;5.30;;;;;;;11.43;45.67;103708.63;4957647;29;20107;-66
2022/01/12 09:09:37;;;;;;;13.52;6.43;;;;;;;11.44;45.93;103718.44;4957662;29;20031;-65
2022/01/12 09:12:04;;;;;;;16.08;5.82;;;;;;;11.45;45.74;103720.16;4957640;29;20057;-65
2022/01/12 09:14:30;;;;;;;18.02;5.55;;;;;;;11.45;45.74;103723.72;4924268;29;20373;-66
2022/01/12 09:16:57;;;;;;;11.55;5.95;;;;;;;11.47;46.17;103724.53;4957518;29;20116;-65
2022/01/12 09:19:24;;;;;;;10.25;4.68;;;;;;;11.49;46.10;103719.09;4940613;29;20515;-66
2022/01/12 09:21:49;;;;;;;13.50;5.82;;;;;;;11.49;46.00;103727.16;4957404;29;20039;-65
2022/01/12 09:24:15;;;;;;;14.73;5.80;;;;;;;11.50;45.93;103726.22;4957431;29;20035;-66
2022/01/12 09:26:41;;;;;;;10.18;5.65;;;;;;;11.51;45.84;103731.53;4940229;29;20035;-65
2022/01/12 09:29:06;;;;;;;15.77;6.63;;;;;;;11.52;45.73;103719.84;4940213;29;20425;-66
2022/01/12 09:31:32;;;;;;;14.55;6.78;;;;;;;11.55;46.03;103722.41;4957182;29;20031;-66
2022/01/12 09:33:57;;;;;;;11.63;4.78;;;;;;;11.58;45.85;103724.09;4957089;29;20449;-65
2022/01/12 09:36:23;;;;;;;11.13;5.28;;;;;;;11.58;46.29;103716.03;4957056;29;20404;-65
2022/01/12 09:38:49;;;;;;;13.20;5.05;;;;;;;11.58;46.15;103716.91;4957152;29;20039;-66
2022/01/12 09:41:14;;;;;;;11.90;5.57;;;;;;;11.58;46.42;103716.03;4957383;29;20023;-66
2022/01/12 09:43:42;;;;;;;10.90;5.55;;;;;;;11.55;46.10;103713.47;4957026;29;20102;-66
2022/01/12 09:46:09;;;;;;;12.57;5.45;;;;;;;11.55;46.30;103719.72;4924202;29;20031;-65
2022/01/12 09:48:36;;;;;;;14.32;5.47;;;;;;;11.57;46.64;103716.97;4939881;29;20114;-66
2022/01/12 09:51:04;;;;;;;15.13;5.50;;;;;;;11.58;46.14;103716.91;4957173;29;20031;-65
2022/01/12 09:53:32;;;;;;;17.05;6.20;;;;;;;11.58;45.72;103718.72;4940029;29;20043;-65
2022/01/12 09:55:57;;;;;;;67.60;14.15;;;;;;;11.57;46.18;103725.91;4956628;29;20057;-66
2022/01/12 09:58:23;;;;;;;24.23;9.10;;;;;;;11.59;46.47;103733.88;4956998;29;20035;-65
2022/01/12 10:00:59;;;;;;;20.73;10.63;;;;;;;11.63;46.12;103731.03;4939630;29;20110;-65
2022/01/12 10:03:25;;;;;;;25.38;9.25;;;;;;;11.67;46.31;103737.09;4956586;29;20031;-66
2022/01/12 10:05:51;;;;;;;44.15;11.23;;;;;;;11.73;46.50;103744.94;4956516;28;20468;-66
2022/01/12 10:08:17;;;;;;;57.00;14.10;;;;;;;11.78;45.87;103761.72;4956661;29;20062;-66
2022/01/12 10:11:00;;;;;;;48.33;12.95;;;;;;;11.81;46.22;103760.75;4956473;29;20027;-65
2022/01/12 10:13:25;;;;;;;24.63;8.88;;;;;;;11.84;46.39;103764.16;4956544;29;20122;-67
2022/01/12 10:15:52;;;;;;;18.63;8.32;;;;;;;11.87;46.41;103766.72;4956274;29;20114;-65
2022/01/12 10:18:18;;;;;;;19.15;7.65;;;;;;;11.89;46.00;103764.81;4956502;29;20030;-65
2022/01/12 10:20:47;;;;;;;21.90;7.93;;;;;;;11.91;46.11;103767.47;4956383;29;20388;-65
2022/01/12 10:23:15;;;;;;;18.48;7.10;;;;;;;11.89;46.73;103762.13;4956396;29;20082;-65
2022/01/12 10:25:46;;;;;;;24.65;8.15;;;;;;;11.90;46.52;103760.34;4939489;29;20031;-66
2022/01/12 10:28:16;;;;;;;32.38;8.40;;;;;;;11.93;45.88;103758.41;4939734;29;20385;-65
2022/01/12 10:30:59;;;;;;;23.23;7.47;;;;;;;11.93;46.19;103755.72;4956165;29;20067;-66
2022/01/12 10:33:27;;;;;;;24.20;8.00;;;;;;;11.92;46.77;103748.59;4956621;29;20510;-65
2022/01/12 10:36:01;;;;;;;24.45;7.57;;;;;;;11.93;46.65;103739.59;4956117;29;20110;-65
2022/01/12 10:38:28;;;;;;;25.98;7.78;;;;;;;11.95;46.22;103753.81;4956248;29;20381;-66
2022/01/12 10:41:02;;;;;;;27.92;8.23;;;;;;;11.98;46.93;103751.00;4956188;29;20039;-65
2022/01/12 10:43:38;;;;;;;48.33;17.30;;;;;;;11.99;46.28;103747.41;4956056;29;20019;-66
2022/01/12 10:46:09;;;;;;;52.03;17.77;;;;;;;11.99;46.30;103755.47;4956130;28;20037;-66
2022/01/12 10:48:46;;;;;;;34.58;11.90;;;;;;;12.01;46.66;103752.69;4956152;29;20039;-65
2022/01/12 10:51:22;;;;;;;28.92;9.52;;;;;;;12.02;46.25;103744.56;4955831;29;20049;-66
2022/01/12 10:53:53;;;;;;;26.77;10.45;;;;;;;12.03;46.01;103735.56;4955932;29;20031;-66
2022/01/12 10:56:23;;;;;;;27.45;10.57;;;;;;;12.08;46.29;103733.56;4955566;29;20051;-65
2022/01/12 10:58:50;;;;;;;24.77;9.07;;;;;;;12.12;46.75;103736.97;4955802;29;20031;-66
2022/01/12 11:01:18;;;;;;;27.80;10.40;;;;;;;12.13;46.42;103736.91;4955988;29;20023;-65
2022/01/12 11:03:44;;;;;;;32.47;9.32;;;;;;;12.18;46.19;103729.53;4955625;29;20023;-65
2022/01/12 11:06:10;;;;;;;27.85;9.05;;;;;;;12.21;46.80;103732.06;4955589;29;20106;-65
2022/01/12 11:08:37;;;;;;;25.67;9.82;;;;;;;12.23;46.67;103735.56;4955583;29;20034;-65
2022/01/12 11:11:02;;;;;;;26.15;9.40;;;;;;;12.21;46.13;103733.88;4955597;29;20070;-66
2022/01/12 11:13:29;;;;;;;28.38;9.82;;;;;;;12.24;46.40;103733.75;4955496;29;20066;-65
2022/01/12 11:15:56;;;;;;;30.58;9.68;;;;;;;12.25;47.07;103741.72;4955462;29;20114;-65
2022/01/12 11:18:24;;;;;;;39.78;10.27;;;;;;;12.27;47.07;103730.94;4954751;28;20027;-66
2022/01/12 11:20:52;;;;;;;27.70;9.45;;;;;;;12.31;47.04;103734.34;4955468;29;20058;-66
2022/01/12 11:23:19;;;;;;;31.65;10.73;;;;;;;12.34;46.37;103742.28;4955424;29;20027;-66
2022/01/12 11:25:47;;;;;;;20.25;8.18;;;;;;;12.36;46.62;103743.06;4955262;29;20059;-66
2022/01/12 11:28:20;;;;;;;19.27;7.88;;;;;;;12.39;46.55;103742.94;4955517;29;20027;-66
2022/01/12 11:31:05;;;;;;;34.55;9.43;;;;;;;12.40;46.74;103750.03;4955527;29;20023;-66
2022/01/12 11:33:31;;;;;;;33.20;10.90;;;;;;;12.44;46.08;103754.34;4954682;29;20151;-66
2022/01/12 11:36:11;;;;;;;29.55;9.93;;;;;;;12.46;45.99;103755.16;4954827;29;20048;-65
2022/01/12 11:38:36;;;;;;;30.80;9.98;;;;;;;12.48;46.64;103764.88;4938129;29;20392;-66
2022/01/12 11:41:10;;;;;;;31.85;9.38;;;;;;;12.51;46.99;103755.81;4955145;29;20027;-66
2022/01/12 11:43:46;;;;;;;27.67;10.75;;;;;;;12.52;46.51;103762.94;4955202;29;20038;-67
2022/01/12 11:46:15;;;;;;;65.68;12.05;;;;;;;12.54;47.00;103769.13;4937787;29;20046;-67
2022/01/12 11:48:59;;;;;;;38.10;11.32;;;;;;;12.56;46.22;103773.47;4938125;29;20035;-66
2022/01/12 11:51:44;;;;;;;36.92;11.65;;;;;;;12.57;46.74;103774.34;4938154;29;20031;-66
2022/01/12 11:54:14;;;;;;;44.42;11.00;;;;;;;12.57;46.97;103768.97;4955104;28;20040;-66
2022/01/12 11:56:57;;;;;;;46.53;11.55;;;;;;;12.59;46.92;103761.75;4954939;29;20035;-66
2022/01/12 11:59:24;;;;;;;37.03;11.77;;;;;;;12.61;46.23;103771.47;4955321;29;20050;-66
2022/01/12 12:01:52;;;;;;;32.33;10.52;;;;;;;12.61;46.59;103768.78;4937985;29;20480;-66
2022/01/12 12:04:29;;;;;;;87.40;25.75;;;;;;;12.61;47.04;103781.34;4937947;29;20055;-66
2022/01/12 12:07:03;;;;;;;57.38;16.88;;;;;;;12.61;47.06;103781.34;4937774;29;20031;-66
2022/01/12 12:09:40;;;;;;;67.70;20.40;;;;;;;12.63;46.46;103764.19;4954937;29;20473;-65
2022/01/12 12:12:22;;;;;;;82.70;26.38;;;;;;;12.64;47.34;103765.97;4937604;29;20446;-66
2022/01/12 12:14:53;;;;;;;62.38;19.15;;;;;;;12.65;47.63;103759.63;4954979;29;20051;-66
2022/01/12 12:17:19;;;;;;;53.97;17.73;;;;;;;12.67;46.42;103751.50;4937657;29;20050;-66
2022/01/12 12:19:46;;;;;;;75.20;24.13;;;;;;;12.70;46.36;103751.34;4937628;29;20039;-66
2022/01/12 12:22:12;;;;;;;66.15;20.23;;;;;;;12.70;47.17;103754.06;4937755;29;20069;-67
2022/01/12 12:24:37;;;;;;;49.20;17.17;;;;;;;12.74;47.31;103750.25;4954868;29;20058;-66
2022/01/12 12:27:05;;;;;;;44.67;14.43;;;;;;;12.76;47.47;103737.59;4954852;29;20031;-66
2022/01/12 12:29:30;;;;;;;51.88;15.38;;;;;;;12.80;46.64;103739.22;4940473;29;20070;-66
2022/01/12 12:31:56;;;;;;;53.80;16.80;;;;;;;12.82;47.34;103729.25;4958445;29;20109;-66
2022/01/12 12:34:26;;;;;;;58.60;17.30;;;;;;;12.85;47.00;103737.16;4958340;29;20031;-66